createdAt,value
2022-09-28T00:01:16.935Z,91.66
2022-09-28T00:03:48.812Z,91.58
2022-09-28T00:06:19.004Z,91.22
2022-09-28T00:08:47.576Z,91.36
2022-09-28T00:11:21.044Z,91.34
2022-09-28T00:13:53.924Z,91.41
2022-09-28T00:16:24.019Z,91.71
2022-09-28T00:18:52.568Z,91.12
2022-09-28T00:21:24.640Z,91.39
2022-09-28T00:24:12.921Z,91.51
2022-09-28T00:26:51.998Z,91.56
2022-09-28T00:29:21.938Z,92.65
2022-09-28T00:31:52.805Z,93.20
2022-09-28T00:34:20.500Z,93.76
2022-09-28T00:36:48.575Z,94.32
2022-09-28T00:39:19.068Z,95.22
2022-09-28T00:41:46.860Z,95.55
2022-09-28T00:44:31.049Z,95.77
2022-09-28T00:47:15.508Z,96.06
2022-09-28T00:49:50.005Z,95.23
2022-09-28T00:52:45.988Z,94.26
2022-09-28T00:55:17.970Z,93.83
2022-09-28T00:57:50.679Z,93.09
2022-09-28T01:00:19.093Z,93.34
2022-09-28T01:02:47.752Z,93.47
2022-09-28T01:05:15.368Z,93.29
2022-09-28T01:07:47.524Z,92.84
2022-09-28T01:10:15.459Z,92.67
2022-09-28T01:12:42.443Z,92.69
2022-09-28T01:15:10.640Z,92.79
2022-09-28T01:17:50.365Z,92.98
2022-09-28T01:20:31.351Z,93.14
2022-09-28T01:23:31.011Z,93.18
2022-09-28T01:26:10.883Z,93.35
2022-09-28T01:28:40.015Z,93.56
2022-09-28T01:31:11.405Z,93.94
2022-09-28T01:33:48.674Z,94.40
2022-09-28T01:36:28.429Z,94.32
2022-09-28T01:39:01.338Z,94.17
2022-09-28T01:41:30.516Z,94.61
2022-09-28T01:44:02.996Z,94.56
2022-09-28T01:46:42.162Z,94.66
2022-09-28T01:49:15.759Z,94.11
2022-09-28T01:52:19.549Z,94.43
2022-09-28T01:54:55.382Z,94.70
2022-09-28T01:57:44.730Z,94.58
2022-09-28T02:00:14.732Z,94.79
2022-09-28T02:02:48.880Z,95.08
2022-09-28T02:05:20.236Z,94.97
2022-09-28T02:08:02.815Z,95.06
2022-09-28T02:10:35.955Z,95.19
2022-09-28T02:13:09.717Z,95.78
2022-09-28T02:15:49.040Z,95.57
2022-09-28T02:18:16.787Z,95.86
2022-09-28T02:20:51.567Z,96.17
2022-09-28T02:23:23.987Z,95.85
2022-09-28T02:26:00.471Z,95.92
2022-09-28T02:28:28.123Z,96.17
2022-09-28T02:30:55.406Z,96.36
2022-09-28T02:33:28.382Z,96.87
2022-09-28T02:35:56.156Z,96.55
2022-09-28T02:38:24.129Z,96.70
2022-09-28T02:41:04.789Z,96.45
2022-09-28T02:43:48.941Z,95.49
2022-09-28T02:46:48.433Z,95.01
2022-09-28T02:49:47.780Z,95.07
2022-09-28T02:52:33.551Z,94.51
2022-09-28T02:55:03.808Z,94.35
2022-09-28T02:57:56.756Z,94.19
2022-09-28T03:00:24.562Z,93.65
2022-09-28T03:06:52.384Z,93.59
2022-09-28T03:09:42.721Z,93.48
2022-09-28T03:12:14.121Z,93.22
2022-09-28T03:14:42.404Z,93.53
2022-09-28T03:17:09.915Z,93.62
2022-09-28T03:19:44.017Z,93.80
2022-09-28T03:22:11.252Z,93.82
2022-09-28T03:24:38.393Z,94.01
2022-09-28T03:27:11.216Z,94.06
2022-09-28T03:29:39.411Z,94.35
2022-09-28T03:32:06.730Z,94.33
2022-09-28T03:34:33.806Z,94.20
2022-09-28T03:37:01.974Z,94.32
2022-09-28T03:39:30.999Z,94.37
2022-09-28T03:42:00.536Z,94.26
2022-09-28T03:44:27.793Z,94.27
2022-09-28T03:46:54.842Z,94.11
2022-09-28T03:49:22.417Z,94.07
2022-09-28T03:51:50.243Z,93.97
2022-09-28T03:54:17.619Z,93.92
2022-09-28T03:56:44.788Z,93.91
2022-09-28T03:59:12.092Z,94.30
2022-09-28T04:01:39.385Z,94.21
2022-09-28T04:04:06.523Z,94.40
2022-09-28T04:06:34.541Z,94.46
2022-09-28T04:09:01.903Z,94.73
2022-09-28T04:11:42.841Z,94.67
2022-09-28T04:14:16.959Z,94.52
2022-09-28T04:16:44.394Z,94.69
2022-09-28T04:19:12.622Z,94.36
2022-09-28T04:21:46.826Z,94.26
2022-09-28T04:24:16.789Z,93.91
2022-09-28T04:26:46.546Z,93.50
2022-09-28T04:29:16.567Z,93.50
2022-09-28T04:31:52.152Z,93.83
2022-09-28T04:34:22.483Z,93.49
2022-09-28T04:36:50.108Z,93.43
2022-09-28T04:39:18.350Z,93.38
2022-09-28T04:41:48.314Z,93.13
2022-09-28T04:44:15.973Z,93.77
2022-09-28T04:46:47.095Z,93.11
2022-09-28T04:49:14.839Z,93.03
2022-09-28T04:51:42.238Z,92.99
2022-09-28T04:54:09.292Z,93.45
2022-09-28T04:56:36.605Z,93.51
2022-09-28T04:59:04.573Z,92.99
2022-09-28T05:01:31.639Z,93.61
2022-09-28T05:04:02.590Z,93.60
2022-09-28T05:06:30.853Z,93.99
2022-09-28T05:09:00.082Z,93.11
2022-09-28T05:11:28.092Z,92.73
2022-09-28T05:13:55.340Z,91.44
2022-09-28T05:16:23.140Z,91.75
2022-09-28T05:18:57.541Z,92.14
2022-09-28T05:24:08.934Z,91.35
2022-09-28T05:26:40.790Z,92.14
2022-09-28T05:29:08.225Z,91.41
2022-09-28T05:34:18.028Z,90.91
2022-09-28T05:37:22.217Z,89.89
2022-09-28T05:39:53.024Z,89.14
2022-09-28T05:42:27.285Z,89.14
2022-09-28T05:44:54.777Z,88.69
2022-09-28T05:47:22.388Z,88.79
2022-09-28T05:49:50.531Z,88.82
2022-09-28T05:52:18.511Z,89.44
2022-09-28T05:54:57.527Z,89.54
2022-09-28T05:57:32.353Z,89.47
2022-09-28T05:59:59.512Z,89.01
2022-09-28T06:02:42.026Z,89.03
2022-09-28T06:05:28.543Z,89.10
2022-09-28T06:07:57.951Z,89.63
2022-09-28T06:10:27.786Z,89.14
2022-09-28T06:12:56.930Z,89.39
2022-09-28T06:15:26.882Z,89.16
2022-09-28T06:18:10.828Z,89.31
2022-09-28T06:20:43.968Z,89.02
2022-09-28T06:26:04.831Z,88.46
2022-09-28T06:28:31.937Z,88.49
2022-09-28T06:31:02.013Z,88.36
2022-09-28T06:36:25.958Z,87.57
2022-09-28T06:38:53.351Z,87.10
2022-09-28T06:41:20.353Z,85.74
2022-09-28T06:43:48.615Z,85.07
2022-09-28T06:46:16.088Z,84.61
2022-09-28T06:48:45.128Z,83.69
2022-09-28T06:51:13.274Z,83.11
2022-09-28T06:53:44.496Z,82.69
2022-09-28T06:56:15.861Z,81.86
2022-09-28T06:58:45.786Z,81.99
2022-09-28T07:01:29.758Z,82.30
2022-09-28T07:04:04.778Z,82.09
2022-09-28T07:06:31.735Z,82.58
2022-09-28T07:09:21.693Z,81.65
2022-09-28T07:11:51.996Z,81.43
2022-09-28T07:14:43.409Z,81.47
2022-09-28T07:17:14.488Z,81.32
2022-09-28T07:19:47.185Z,81.26
2022-09-28T07:22:19.327Z,81.27
2022-09-28T07:25:04.705Z,80.32
2022-09-28T07:33:18.975Z,78.12
2022-09-28T07:35:55.827Z,77.35
2022-09-28T07:38:26.151Z,76.67
2022-09-28T07:41:11.778Z,75.83
2022-09-28T07:49:12.619Z,74.11
2022-09-28T07:51:39.876Z,73.36
2022-09-28T07:54:06.913Z,73.61
2022-09-28T07:56:35.038Z,72.31
2022-09-28T07:59:01.990Z,72.23
2022-09-28T08:01:31.051Z,72.19
2022-09-28T08:03:58.742Z,72.92
2022-09-28T08:06:30.208Z,72.63
2022-09-28T08:09:10.592Z,72.90
2022-09-28T08:11:39.390Z,72.87
2022-09-28T08:14:06.551Z,73.22
2022-09-28T08:16:33.636Z,73.17
2022-09-28T08:19:03.353Z,74.05
2022-09-28T08:21:48.559Z,74.08
2022-09-28T08:24:31.369Z,74.54
2022-09-28T08:27:05.126Z,74.56
2022-09-28T08:29:51.129Z,74.91
2022-09-28T08:32:21.237Z,75.05
2022-09-28T08:34:48.766Z,75.33
2022-09-28T08:37:15.948Z,75.73
2022-09-28T08:39:43.315Z,75.55
2022-09-28T08:42:29.479Z,75.38
2022-09-28T08:45:00.313Z,75.58
2022-09-28T08:48:09.571Z,76.57
2022-09-28T08:50:48.685Z,76.25
2022-09-28T08:53:25.354Z,77.06
2022-09-28T08:55:53.015Z,76.66
2022-09-28T09:01:16.836Z,76.04
2022-09-28T09:03:47.109Z,74.93
2022-09-28T09:06:45.856Z,72.25
2022-09-28T09:09:22.444Z,67.70
2022-09-28T09:11:57.467Z,67.17
2022-09-28T09:14:36.665Z,67.76
2022-09-28T09:17:22.764Z,68.32
2022-09-28T09:19:55.508Z,68.65
2022-09-28T09:22:33.389Z,68.97
2022-09-28T09:25:19.205Z,68.16
2022-09-28T09:27:56.045Z,66.97
2022-09-28T09:30:25.495Z,64.81
2022-09-28T09:33:13.276Z,61.42
2022-09-28T09:35:40.304Z,58.02
2022-09-28T09:38:33.147Z,54.66
2022-09-28T09:41:19.229Z,55.47
2022-09-28T09:44:13.623Z,54.48
2022-09-28T09:46:44.685Z,56.38
2022-09-28T09:49:21.172Z,55.52
2022-09-28T09:52:30.139Z,53.21
2022-09-28T09:55:10.473Z,49.01
2022-09-28T09:57:45.818Z,48.36
2022-09-28T10:00:15.185Z,49.29
2022-09-28T10:02:45.494Z,50.44
2022-09-28T10:05:12.623Z,51.27
2022-09-28T10:07:45.098Z,53.72
2022-09-28T10:10:37.371Z,54.54
2022-09-28T10:13:05.488Z,53.79
2022-09-28T10:15:39.646Z,53.29
2022-09-28T10:18:12.427Z,54.73
2022-09-28T10:20:42.371Z,57.23
2022-09-28T10:23:17.825Z,59.06
2022-09-28T10:25:48.087Z,60.33
2022-09-28T10:28:23.593Z,61.09
2022-09-28T10:30:51.466Z,60.80
2022-09-28T10:33:33.512Z,60.87
2022-09-28T10:36:07.087Z,60.69
2022-09-28T10:38:36.120Z,61.06
2022-09-28T10:41:11.136Z,61.47
2022-09-28T10:44:06.343Z,62.18
2022-09-28T10:46:35.309Z,63.66
2022-09-28T10:49:05.074Z,63.48
2022-09-28T10:51:52.199Z,64.30
2022-09-28T10:54:23.052Z,65.00
2022-09-28T10:56:51.179Z,65.26
2022-09-28T10:59:30.494Z,64.13
2022-09-28T11:02:17.648Z,64.20
2022-09-28T11:04:55.554Z,64.00
2022-09-28T11:07:27.053Z,64.04
2022-09-28T11:09:55.617Z,63.25
2022-09-28T11:12:38.294Z,62.47
2022-09-28T11:15:17.820Z,63.16
2022-09-28T11:20:45.469Z,62.17
2022-09-28T11:23:23.971Z,61.28
2022-09-28T11:26:18.365Z,60.16
2022-09-28T11:28:51.826Z,59.63
2022-09-28T11:31:31.665Z,60.51
2022-09-28T11:34:27.767Z,59.89
2022-09-28T11:37:13.679Z,59.60
2022-09-28T11:40:08.457Z,59.53
2022-09-28T11:42:45.864Z,59.84
2022-09-28T11:45:23.245Z,60.13
2022-09-28T11:48:04.928Z,59.75
2022-09-28T11:50:52.410Z,59.34
2022-09-28T11:53:23.080Z,57.35
2022-09-28T11:55:58.694Z,56.60
2022-09-28T11:58:47.338Z,56.41
2022-09-28T12:01:44.777Z,52.67
2022-09-28T12:11:44.147Z,52.22
2022-09-28T12:14:29.745Z,52.38
2022-09-28T12:17:20.009Z,52.71
2022-09-28T12:19:55.498Z,52.87
2022-09-28T12:22:33.666Z,51.33
2022-09-28T12:25:05.125Z,50.35
2022-09-28T12:27:47.911Z,51.56
2022-09-28T12:33:17.685Z,50.45
2022-09-28T12:39:35.587Z,50.02
2022-09-28T12:42:35.436Z,50.87
2022-09-28T12:45:38.458Z,52.07
2022-09-28T12:51:25.450Z,51.27
2022-09-28T12:54:11.852Z,50.19
2022-09-28T12:56:48.492Z,49.95
2022-09-28T12:59:25.370Z,50.24
2022-09-28T13:02:09.148Z,51.13
2022-09-28T13:05:13.368Z,49.20
2022-09-28T13:08:04.833Z,48.19
2022-09-28T13:10:55.994Z,47.97
2022-09-28T13:13:41.510Z,47.42
2022-09-28T13:16:18.310Z,47.82
2022-09-28T13:19:08.597Z,49.07
2022-09-28T13:21:48.803Z,48.95
2022-09-28T13:24:32.544Z,49.87
2022-09-28T13:27:15.534Z,50.42
2022-09-28T13:30:14.751Z,50.21
2022-09-28T13:32:44.499Z,50.11
2022-09-28T13:35:15.740Z,50.13
2022-09-28T13:37:43.193Z,50.00
2022-09-28T13:40:11.513Z,50.38
2022-09-28T13:42:44.713Z,49.63
2022-09-28T13:45:15.116Z,50.09
2022-09-28T13:48:11.593Z,50.37
2022-09-28T13:51:06.931Z,49.96
2022-09-28T13:53:52.530Z,50.07
2022-09-28T13:56:27.755Z,49.79
2022-09-28T13:59:17.858Z,49.35
2022-09-28T14:01:56.332Z,48.73
2022-09-28T14:04:44.359Z,48.64
2022-09-28T14:07:20.882Z,48.34
2022-09-28T14:09:49.502Z,48.87
2022-09-28T14:12:35.330Z,48.51
2022-09-28T14:15:06.662Z,48.92
2022-09-28T14:17:54.742Z,49.72
2022-09-28T14:20:24.960Z,50.10
2022-09-28T14:22:55.729Z,50.04
2022-09-28T14:25:25.831Z,49.93
2022-09-28T14:28:21.068Z,50.05
2022-09-28T14:30:53.979Z,50.51
2022-09-28T14:33:22.181Z,50.83
2022-09-28T14:35:56.605Z,50.37
2022-09-28T14:38:47.691Z,49.88
2022-09-28T14:44:23.975Z,50.34
2022-09-28T14:47:25.346Z,50.63
2022-09-28T14:50:01.278Z,50.94
2022-09-28T14:52:41.127Z,51.36
2022-09-28T14:55:14.571Z,51.60
2022-09-28T14:57:43.120Z,51.94
2022-09-28T15:00:20.439Z,51.88
2022-09-28T15:02:52.709Z,52.34
2022-09-28T15:05:44.199Z,53.03
2022-09-28T15:08:12.203Z,53.45
2022-09-28T15:10:48.471Z,53.53
2022-09-28T15:13:36.308Z,54.77
2022-09-28T15:16:13.753Z,55.46
2022-09-28T15:19:30.101Z,56.06
2022-09-28T15:22:17.324Z,57.19
2022-09-28T15:25:14.192Z,57.45
2022-09-28T15:27:43.167Z,57.96
2022-09-28T15:30:26.667Z,58.53
2022-09-28T15:32:57.049Z,58.69
2022-09-28T15:35:27.115Z,59.19
2022-09-28T15:37:55.753Z,59.63
2022-09-28T15:40:32.938Z,60.36
2022-09-28T15:43:00.658Z,61.56
2022-09-28T15:45:37.154Z,62.19
2022-09-28T15:48:31.146Z,62.52
2022-09-28T15:51:13.556Z,62.58
2022-09-28T15:54:07.067Z,63.11
2022-09-28T16:00:36.414Z,64.84
2022-09-28T16:03:09.104Z,65.34
2022-09-28T16:05:46.900Z,65.06
2022-09-28T16:08:25.068Z,65.26
2022-09-28T16:10:57.195Z,64.51
2022-09-28T16:13:58.414Z,64.33
2022-09-28T16:16:31.071Z,64.05
2022-09-28T16:19:03.694Z,63.02
2022-09-28T16:21:37.672Z,63.13
2022-09-28T16:24:05.354Z,62.97
2022-09-28T16:26:40.533Z,63.19
2022-09-28T16:29:28.792Z,64.32
2022-09-28T16:31:56.167Z,64.20
2022-09-28T16:34:27.231Z,64.31
2022-09-28T16:36:54.793Z,64.63
2022-09-28T16:39:25.618Z,64.70
2022-09-28T16:41:56.149Z,65.06
2022-09-28T16:44:26.692Z,65.47
2022-09-28T16:46:57.779Z,66.21
2022-09-28T16:49:26.433Z,66.97
2022-09-28T16:51:53.496Z,67.08
2022-09-28T16:54:44.170Z,67.57
2022-09-28T16:57:17.350Z,68.19
2022-09-28T16:59:47.183Z,68.39
2022-09-28T17:02:45.299Z,69.25
2022-09-28T17:05:08.062Z,69.45
2022-09-28T17:07:35.581Z,70.30
2022-09-28T17:10:12.393Z,70.88
2022-09-28T17:12:40.363Z,71.13
2022-09-28T17:15:07.950Z,71.30
2022-09-28T17:17:35.600Z,71.26
2022-09-28T17:20:22.972Z,71.26
2022-09-28T17:22:54.067Z,71.53
2022-09-28T17:25:26.749Z,71.88
2022-09-28T17:27:57.466Z,72.02
2022-09-28T17:30:26.406Z,74.26
2022-09-28T17:32:53.424Z,73.86
2022-09-28T17:35:25.267Z,73.19
2022-09-28T17:37:54.738Z,73.60
2022-09-28T17:40:28.453Z,73.63
2022-09-28T17:43:01.421Z,73.65
2022-09-28T17:45:36.878Z,73.82
2022-09-28T17:48:15.884Z,74.31
2022-09-28T17:50:46.445Z,74.62
2022-09-28T17:53:15.662Z,75.21
2022-09-28T18:05:40.329Z,74.80
2022-09-28T18:08:23.916Z,74.89
2022-09-28T18:10:51.577Z,75.38
2022-09-28T18:13:19.388Z,75.16
2022-09-28T18:15:50.136Z,75.53
2022-09-28T18:18:24.310Z,76.05
2022-09-28T18:20:52.600Z,76.31
2022-09-28T18:23:19.799Z,76.55
2022-09-28T18:25:47.308Z,76.32
2022-09-28T18:28:22.185Z,76.95
2022-09-28T18:31:04.501Z,77.06
2022-09-28T18:33:34.998Z,77.63
2022-09-28T18:36:04.631Z,77.68
2022-09-28T18:38:40.059Z,77.62
2022-09-28T18:41:14.579Z,77.95
2022-09-28T18:43:43.347Z,78.13
2022-09-28T18:46:12.110Z,78.58
2022-09-28T18:48:40.652Z,78.03
2022-09-28T18:51:13.525Z,77.81
2022-09-28T18:53:41.501Z,78.24
2022-09-28T18:56:20.817Z,77.91
2022-09-28T18:58:52.636Z,78.84
2022-09-28T19:01:30.339Z,78.80
2022-09-28T19:04:05.048Z,79.04
2022-09-28T19:06:42.146Z,79.03
2022-09-28T19:09:11.910Z,79.95
2022-09-28T19:11:39.000Z,79.63
2022-09-28T19:14:11.223Z,80.50
2022-09-28T19:16:38.520Z,80.36
2022-09-28T19:19:06.752Z,79.75
2022-09-28T19:21:33.883Z,79.82
2022-09-28T19:24:02.935Z,80.07
2022-09-28T19:26:34.225Z,80.24
2022-09-28T19:29:05.234Z,80.34
2022-09-28T19:31:32.777Z,80.32
2022-09-28T19:33:59.902Z,80.10
2022-09-28T19:36:29.893Z,80.29
2022-09-28T19:38:58.270Z,80.47
2022-09-28T19:41:46.074Z,80.10
2022-09-28T19:44:29.757Z,80.03
2022-09-28T19:46:59.922Z,80.43
2022-09-28T19:49:33.245Z,80.02
2022-09-28T19:52:16.796Z,80.20
2022-09-28T19:54:58.033Z,80.12
2022-09-28T19:57:27.980Z,80.37
2022-09-28T20:00:00.858Z,80.49
2022-09-28T20:02:29.135Z,80.65
2022-09-28T20:04:56.530Z,80.45
2022-09-28T20:07:23.871Z,80.59
2022-09-28T20:09:51.824Z,80.57
2022-09-28T20:12:19.203Z,80.38
2022-09-28T20:14:46.366Z,80.73
2022-09-28T20:17:13.472Z,80.61
2022-09-28T20:19:41.401Z,80.71
2022-09-28T20:22:08.498Z,80.57
2022-09-28T20:24:35.607Z,80.52
2022-09-28T20:27:02.987Z,80.65
2022-09-28T20:29:32.175Z,80.12
2022-09-28T20:32:03.076Z,80.26
2022-09-28T20:34:32.828Z,80.65
2022-09-28T20:37:00.033Z,80.35
2022-09-28T20:39:27.076Z,80.26
2022-09-28T20:41:57.975Z,80.13
2022-09-28T20:44:26.070Z,80.03
2022-09-28T20:46:56.767Z,80.42
2022-09-28T20:49:24.928Z,80.65
2022-09-28T20:51:51.985Z,80.46
2022-09-28T20:54:23.282Z,80.64
2022-09-28T20:56:52.142Z,80.42
2022-09-28T20:59:23.251Z,80.61
2022-09-28T21:01:52.692Z,80.64
2022-09-28T21:04:20.133Z,81.10
2022-09-28T21:06:47.486Z,81.21
2022-09-28T21:09:15.040Z,81.13
2022-09-28T21:11:43.132Z,81.35
2022-09-28T21:14:10.683Z,81.69
2022-09-28T21:16:39.483Z,81.54
2022-09-28T21:19:16.805Z,81.66
2022-09-28T21:21:43.842Z,81.53
2022-09-28T21:24:11.215Z,81.53
2022-09-28T21:26:39.150Z,81.30
2022-09-28T21:29:11.672Z,81.62
2022-09-28T21:31:46.925Z,81.61
2022-09-28T21:34:19.486Z,81.39
2022-09-28T21:36:48.489Z,81.44
2022-09-28T21:39:16.347Z,81.49
2022-09-28T21:41:46.164Z,81.29
2022-09-28T21:44:14.825Z,80.70
2022-09-28T21:46:42.333Z,81.00
2022-09-28T21:49:34.920Z,80.91
2022-09-28T21:52:03.560Z,80.91
2022-09-28T21:55:22.759Z,80.89
2022-09-28T21:57:51.582Z,80.53
2022-09-28T22:00:25.477Z,80.32
2022-09-28T22:02:53.045Z,80.77
2022-09-28T22:05:20.171Z,80.46
2022-09-28T22:07:47.592Z,80.97
2022-09-28T22:10:16.372Z,81.12
2022-09-28T22:12:43.569Z,81.33
2022-09-28T22:15:11.494Z,81.35
2022-09-28T22:17:38.888Z,81.09
2022-09-28T22:20:08.738Z,81.39
2022-09-28T22:22:35.779Z,81.07
2022-09-28T22:25:03.228Z,81.24
2022-09-28T22:27:31.848Z,80.34
2022-09-28T22:29:58.908Z,80.25
2022-09-28T22:32:28.250Z,80.00
2022-09-28T22:34:55.268Z,79.96
2022-09-28T22:37:22.372Z,80.26
2022-09-28T22:39:49.956Z,80.33
2022-09-28T22:42:17.454Z,80.39
2022-09-28T22:44:44.505Z,80.40
2022-09-28T22:47:12.123Z,80.77
2022-09-28T22:49:39.215Z,80.47
2022-09-28T22:52:06.356Z,80.62
2022-09-28T22:54:34.304Z,80.38
2022-09-28T22:57:01.274Z,80.48
2022-09-28T22:59:28.409Z,80.42
2022-09-28T23:02:00.490Z,80.62
2022-09-28T23:04:27.713Z,80.65
2022-09-28T23:06:56.814Z,80.00
2022-09-28T23:09:31.535Z,79.47
2022-09-28T23:11:58.875Z,79.00
2022-09-28T23:14:28.991Z,77.47
2022-09-28T23:17:03.609Z,77.22
2022-09-28T23:19:31.431Z,75.79
2022-09-28T23:22:02.489Z,76.36
2022-09-28T23:24:49.925Z,75.63
2022-09-28T23:27:19.809Z,75.87
2022-09-28T23:29:48.891Z,76.45
2022-09-28T23:32:16.981Z,76.15
2022-09-28T23:34:44.454Z,76.39
2022-09-28T23:37:11.575Z,76.23
2022-09-28T23:39:39.300Z,76.62
2022-09-28T23:42:06.988Z,76.73
2022-09-28T23:44:35.591Z,76.78
2022-09-28T23:47:03.410Z,76.74
2022-09-28T23:49:30.781Z,75.52
2022-09-28T23:51:57.766Z,76.09
2022-09-28T23:54:24.713Z,76.14
2022-09-28T23:56:52.775Z,75.70
2022-09-28T23:59:20.496Z,76.61
